createdAt,value
2018-01-10T00:02:00.601Z,26.27
2018-01-10T00:04:28.098Z,26.20
2018-01-10T00:06:55.586Z,26.50
2018-01-10T00:09:23.074Z,28.20
2018-01-10T00:11:50.538Z,27.80
2018-01-10T00:14:18.023Z,27.80
2018-01-10T00:16:45.522Z,27.67
2018-01-10T00:19:13.025Z,27.23
2018-01-10T00:21:40.483Z,27.43
2018-01-10T00:24:07.973Z,28.43
2018-01-10T00:26:35.459Z,25.13
2018-01-10T00:29:02.974Z,25.87
2018-01-10T00:31:30.449Z,26.50
2018-01-10T00:33:57.926Z,27.00
2018-01-10T00:36:26.198Z,24.17
2018-01-10T00:38:53.676Z,26.13
2018-01-10T00:41:21.142Z,30.57
2018-01-10T00:43:48.658Z,30.60
2018-01-10T00:46:16.205Z,28.37
2018-01-10T00:48:43.716Z,29.47
2018-01-10T00:51:11.991Z,28.63
2018-01-10T00:53:39.467Z,30.43
2018-01-10T00:56:06.942Z,27.13
2018-01-10T00:58:34.434Z,28.50
2018-01-10T01:01:01.894Z,26.20
2018-01-10T01:03:29.390Z,28.67
2018-01-10T01:05:56.944Z,27.53
2018-01-10T01:08:25.233Z,25.53
2018-01-10T01:10:52.697Z,30.90
2018-01-10T01:13:20.175Z,23.60
2018-01-10T01:15:48.413Z,24.33
2018-01-10T01:18:15.890Z,25.73
2018-01-10T01:20:43.398Z,27.33
2018-01-10T01:23:10.873Z,29.17
2018-01-10T01:25:38.364Z,31.17
2018-01-10T01:28:06.614Z,30.63
2018-01-10T01:30:34.083Z,30.43
2018-01-10T01:33:01.597Z,27.47
2018-01-10T01:35:29.054Z,27.37
2018-01-10T01:37:56.589Z,25.27
2018-01-10T01:40:24.834Z,30.63
2018-01-10T01:42:52.349Z,28.93
2018-01-10T01:45:19.812Z,30.33
2018-01-10T01:47:47.297Z,34.00
2018-01-10T01:50:15.682Z,27.20
2018-01-10T01:52:43.182Z,27.47
2018-01-10T01:55:11.508Z,29.90
2018-01-10T01:57:39.754Z,29.57
2018-01-10T02:00:07.227Z,29.93
2018-01-10T02:02:34.750Z,32.13
2018-01-10T02:05:02.222Z,31.77
2018-01-10T02:07:29.723Z,28.63
2018-01-10T02:09:57.978Z,33.37
2018-01-10T02:12:25.466Z,30.27
2018-01-10T02:14:52.958Z,27.80
2018-01-10T02:17:20.427Z,33.93
2018-01-10T02:19:47.904Z,30.80
2018-01-10T02:22:15.418Z,27.00
2018-01-10T02:24:42.911Z,29.33
2018-01-10T02:27:11.145Z,30.10
2018-01-10T02:29:38.607Z,33.43
2018-01-10T02:32:06.089Z,33.93
2018-01-10T02:34:33.566Z,31.13
2018-01-10T02:37:01.050Z,28.97
2018-01-10T02:39:28.546Z,30.47
2018-01-10T02:41:56.006Z,31.57
2018-01-10T02:44:23.497Z,35.43
2018-01-10T02:46:50.961Z,30.40
2018-01-10T02:49:18.449Z,30.63
2018-01-10T02:51:45.921Z,32.00
2018-01-10T02:54:13.418Z,33.53
2018-01-10T02:56:40.890Z,31.60
2018-01-10T02:59:08.388Z,35.00
2018-01-10T03:01:35.886Z,28.77
2018-01-10T03:04:03.373Z,29.33
2018-01-10T03:06:30.853Z,35.07
2018-01-10T03:08:58.361Z,34.70
2018-01-10T03:11:26.589Z,32.40
2018-01-10T03:13:54.090Z,31.97
2018-01-10T03:16:21.562Z,35.50
2018-01-10T03:18:49.026Z,36.77
2018-01-10T03:21:17.290Z,35.93
2018-01-10T03:23:44.762Z,32.10
2018-01-10T03:26:12.276Z,33.70
2018-01-10T03:28:40.518Z,32.93
2018-01-10T03:31:08.004Z,29.90
2018-01-10T03:33:35.507Z,37.17
2018-01-10T03:36:02.983Z,33.03
2018-01-10T03:38:30.458Z,35.37
2018-01-10T03:40:57.955Z,34.60
2018-01-10T03:43:25.434Z,34.83
2018-01-10T03:45:52.934Z,33.30
2018-01-10T03:48:21.162Z,32.93
2018-01-10T03:50:48.662Z,31.37
2018-01-10T03:53:16.158Z,34.60
2018-01-10T03:55:43.617Z,35.80
2018-01-10T03:58:11.102Z,33.47
2018-01-10T04:00:38.596Z,36.00
2018-01-10T04:03:06.094Z,36.23
2018-01-10T04:05:33.569Z,32.73
2018-01-10T04:08:01.070Z,31.47
2018-01-10T04:10:29.302Z,34.27
2018-01-10T04:12:56.798Z,33.30
2018-01-10T04:15:24.274Z,31.90
2018-01-10T04:17:51.768Z,36.57
2018-01-10T04:20:19.243Z,33.57
2018-01-10T04:22:46.764Z,33.43
2018-01-10T04:25:14.978Z,33.97
2018-01-10T04:27:42.459Z,31.50
2018-01-10T04:30:10.733Z,31.53
2018-01-10T04:32:38.965Z,31.50
2018-01-10T04:35:06.427Z,32.17
2018-01-10T04:37:33.929Z,31.40
2018-01-10T04:40:01.415Z,35.90
2018-01-10T04:42:28.919Z,37.67
2018-01-10T04:44:56.423Z,37.83
2018-01-10T04:47:23.910Z,36.37
2018-01-10T04:49:52.212Z,30.90
2018-01-10T04:52:20.483Z,33.03
2018-01-10T04:54:47.986Z,35.63
2018-01-10T04:57:15.485Z,40.50
2018-01-10T04:59:42.962Z,34.83
2018-01-10T05:02:11.189Z,32.80
2018-01-10T05:04:38.690Z,32.37
2018-01-10T05:07:06.174Z,37.10
2018-01-10T05:09:33.712Z,33.43
2018-01-10T05:12:01.195Z,34.87
2018-01-10T05:14:28.749Z,33.53
2018-01-10T05:16:56.196Z,35.53
2018-01-10T05:19:23.675Z,37.27
2018-01-10T05:21:51.988Z,36.40
2018-01-10T05:24:19.462Z,37.30
2018-01-10T05:26:46.982Z,33.80
2018-01-10T05:29:14.470Z,36.77
2018-01-10T05:31:41.970Z,34.90
2018-01-10T05:34:09.461Z,38.13
2018-01-10T05:36:36.943Z,36.73
2018-01-10T05:39:04.432Z,35.87
2018-01-10T05:41:31.909Z,35.90
2018-01-10T05:43:59.417Z,37.83
2018-01-10T05:46:26.882Z,36.57
2018-01-10T05:48:54.351Z,39.33
2018-01-10T05:51:21.902Z,36.70
2018-01-10T05:53:49.474Z,39.40
2018-01-10T05:56:17.711Z,34.60
2018-01-10T05:58:45.975Z,36.00
2018-01-10T06:01:13.458Z,35.17
2018-01-10T06:03:40.962Z,39.03
2018-01-10T06:06:08.446Z,39.10
2018-01-10T06:08:35.934Z,40.33
2018-01-10T06:11:03.446Z,40.17
2018-01-10T06:13:30.905Z,34.80
2018-01-10T06:15:58.434Z,37.53
2018-01-10T06:18:25.951Z,39.40
2018-01-10T06:20:53.423Z,38.67
2018-01-10T06:23:20.914Z,43.70
2018-01-10T06:25:48.371Z,37.17
2018-01-10T06:28:15.890Z,37.93
2018-01-10T06:30:43.374Z,40.90
2018-01-10T06:33:10.834Z,35.93
2018-01-10T06:35:38.331Z,41.33
2018-01-10T06:38:05.813Z,43.00
2018-01-10T06:40:33.347Z,40.97
2018-01-10T06:43:00.849Z,39.87
2018-01-10T06:45:28.309Z,39.47
2018-01-10T06:47:55.807Z,40.57
2018-01-10T06:50:23.278Z,43.77
2018-01-10T06:52:50.774Z,41.43
2018-01-10T06:55:18.266Z,42.63
2018-01-10T06:57:45.732Z,40.77
2018-01-10T07:00:13.445Z,42.43
2018-01-10T07:02:41.039Z,38.93
2018-01-10T07:05:09.478Z,45.07
2018-01-10T07:07:36.978Z,41.43
2018-01-10T07:10:04.533Z,38.53
2018-01-10T07:12:32.223Z,41.70
2018-01-10T07:14:59.715Z,41.07
2018-01-10T07:17:27.190Z,43.27
2018-01-10T07:19:55.066Z,41.00
2018-01-10T07:22:22.576Z,35.10
2018-01-10T07:24:50.060Z,43.77
2018-01-10T07:27:17.558Z,40.73
2018-01-10T07:29:45.290Z,45.53
2018-01-10T07:32:13.027Z,42.73
2018-01-10T07:34:40.627Z,39.87
2018-01-10T07:37:08.920Z,44.13
2018-01-10T07:39:36.621Z,42.57
2018-01-10T07:42:04.101Z,44.07
2018-01-10T07:44:31.572Z,43.63
2018-01-10T07:46:59.038Z,44.10
2018-01-10T07:49:26.646Z,48.07
2018-01-10T07:51:54.980Z,43.30
2018-01-10T07:54:22.643Z,43.07
2018-01-10T07:56:50.145Z,45.77
2018-01-10T07:59:17.830Z,41.57
2018-01-10T08:01:45.370Z,41.27
2018-01-10T08:04:14.009Z,42.70
2018-01-10T08:06:41.552Z,65.47
2018-01-10T08:09:09.046Z,50.83
2018-01-10T08:11:37.492Z,46.10
2018-01-10T08:14:04.984Z,44.23
2018-01-10T08:16:32.692Z,44.73
2018-01-10T08:19:00.392Z,45.20
2018-01-10T08:21:28.036Z,46.40
2018-01-10T08:23:55.603Z,42.37
2018-01-10T08:26:23.495Z,48.03
2018-01-10T08:28:53.104Z,44.57
2018-01-10T08:31:23.582Z,46.47
2018-01-10T08:33:55.839Z,45.17
2018-01-10T08:36:25.355Z,44.40
2018-01-10T08:38:56.648Z,41.70
2018-01-10T08:41:28.496Z,47.07
2018-01-10T08:43:56.462Z,46.80
2018-01-10T08:46:29.288Z,48.07
2018-01-10T08:48:58.337Z,49.33
2018-01-10T08:51:27.317Z,45.90
2018-01-10T08:53:56.864Z,45.63
2018-01-10T08:56:26.290Z,50.57
2018-01-10T08:58:54.127Z,45.77
2018-01-10T09:01:22.929Z,43.97
2018-01-10T09:03:50.423Z,49.77
2018-01-10T09:06:20.300Z,43.13
2018-01-10T09:08:49.476Z,44.77
2018-01-10T09:11:18.006Z,52.57
2018-01-10T09:13:45.809Z,53.27
2018-01-10T09:16:15.841Z,50.27
2018-01-10T09:18:45.613Z,46.53
2018-01-10T09:21:14.670Z,46.13
2018-01-10T09:23:43.552Z,51.40
2018-01-10T09:26:12.797Z,46.17
2018-01-10T09:28:41.606Z,51.77
2018-01-10T09:31:10.636Z,51.77
2018-01-10T09:33:38.466Z,49.57
2018-01-10T09:36:10.026Z,45.33
2018-01-10T09:38:38.045Z,59.83
2018-01-10T09:41:09.237Z,51.77
2018-01-10T09:43:37.741Z,55.60
2018-01-10T09:46:07.306Z,43.90
2018-01-10T09:48:36.643Z,46.47
2018-01-10T09:51:04.989Z,45.50
2018-01-10T09:53:35.989Z,42.33
2018-01-10T09:56:03.588Z,42.30
2018-01-10T09:58:31.149Z,44.40
2018-01-10T10:01:01.450Z,40.60
2018-01-10T10:03:33.061Z,43.60
2018-01-10T10:06:02.841Z,38.50
2018-01-10T10:08:32.252Z,39.27
2018-01-10T10:11:00.442Z,41.10
2018-01-10T10:13:28.615Z,43.30
2018-01-10T10:15:56.103Z,47.97
2018-01-10T10:18:24.252Z,52.73
2018-01-10T10:20:52.222Z,45.20
2018-01-10T10:23:19.788Z,39.87
2018-01-10T10:25:48.753Z,44.23
2018-01-10T10:28:16.423Z,39.03
2018-01-10T10:30:44.739Z,54.37
2018-01-10T10:33:12.202Z,46.80
2018-01-10T10:35:39.738Z,40.97
2018-01-10T10:38:09.351Z,38.73
2018-01-10T10:40:37.338Z,38.67
2018-01-10T10:43:05.970Z,42.93
2018-01-10T10:45:35.459Z,39.70
2018-01-10T10:48:04.555Z,37.93
2018-01-10T10:50:33.873Z,38.90
2018-01-10T10:53:01.548Z,34.83
2018-01-10T10:55:31.894Z,39.43
2018-01-10T10:58:01.780Z,35.73
2018-01-10T11:00:30.636Z,40.27
2018-01-10T11:03:02.314Z,37.80
2018-01-10T11:05:31.803Z,38.13
2018-01-10T11:08:02.737Z,37.87
2018-01-10T11:10:33.685Z,42.07
2018-01-10T11:13:07.461Z,41.63
2018-01-10T11:15:35.051Z,45.17
2018-01-10T11:18:03.680Z,39.43
2018-01-10T11:20:32.420Z,39.13
2018-01-10T11:23:02.174Z,41.47
2018-01-10T11:25:31.639Z,37.57
2018-01-10T11:28:10.257Z,35.37
2018-01-10T11:30:38.957Z,37.10
2018-01-10T11:33:08.497Z,38.97
2018-01-10T11:35:39.340Z,48.87
2018-01-10T11:38:09.310Z,38.90
2018-01-10T11:40:40.400Z,37.50
2018-01-10T11:43:10.042Z,34.50
2018-01-10T11:45:41.909Z,40.57
2018-01-10T11:48:13.552Z,45.77
2018-01-10T11:50:44.572Z,37.03
2018-01-10T11:53:13.618Z,38.27
2018-01-10T11:55:43.822Z,42.00
2018-01-10T11:58:13.543Z,40.23
2018-01-10T12:00:43.091Z,39.17
2018-01-10T12:03:12.378Z,41.30
2018-01-10T12:05:43.264Z,37.40
2018-01-10T12:08:13.912Z,37.87
2018-01-10T12:10:42.504Z,45.50
2018-01-10T12:13:13.548Z,38.10
2018-01-10T12:15:48.949Z,38.53
2018-01-10T12:18:18.617Z,36.93
2018-01-10T12:23:20.427Z,39.80
2018-01-10T12:25:50.516Z,36.70
2018-01-10T12:28:18.418Z,38.83
2018-01-10T12:30:46.818Z,39.60
2018-01-10T12:33:20.636Z,41.70
2018-01-10T12:35:52.597Z,37.90
2018-01-10T12:38:23.935Z,36.03
2018-01-10T12:40:54.167Z,35.07
2018-01-10T12:43:26.327Z,39.43
2018-01-10T12:45:57.878Z,35.47
2018-01-10T12:48:27.358Z,38.13
2018-01-10T12:50:59.821Z,37.20
2018-01-10T12:53:32.674Z,39.00
2018-01-10T12:56:01.851Z,37.70
2018-01-10T12:58:31.140Z,38.50
2018-01-10T13:01:00.143Z,39.30
2018-01-10T13:03:30.694Z,41.10
2018-01-10T13:06:00.099Z,38.30
2018-01-10T13:08:30.311Z,36.40
2018-01-10T13:10:58.195Z,37.97
2018-01-10T13:13:26.923Z,40.73
2018-01-10T13:15:56.651Z,41.90
2018-01-10T13:18:25.111Z,39.70
2018-01-10T13:20:56.999Z,40.83
2018-01-10T13:23:24.657Z,41.77
2018-01-10T13:25:52.681Z,41.23
2018-01-10T13:28:21.288Z,38.30
2018-01-10T13:30:49.652Z,36.17
2018-01-10T13:33:17.960Z,45.17
2018-01-10T13:35:46.680Z,42.43
2018-01-10T13:38:16.254Z,40.43
2018-01-10T13:40:45.725Z,43.87
2018-01-10T13:43:13.284Z,47.23
2018-01-10T13:45:41.517Z,43.00
2018-01-10T13:48:09.103Z,41.63
2018-01-10T13:50:36.678Z,42.30
2018-01-10T13:53:04.293Z,53.67
2018-01-10T13:55:34.415Z,47.87
2018-01-10T13:58:03.254Z,44.80
2018-01-10T14:00:32.252Z,48.57
2018-01-10T14:02:59.822Z,47.47
2018-01-10T14:05:28.524Z,41.03
2018-01-10T14:07:56.988Z,40.23
2018-01-10T14:10:25.339Z,42.20
2018-01-10T14:12:54.442Z,38.20
2018-01-10T14:15:24.374Z,42.77
2018-01-10T14:17:52.946Z,43.60
2018-01-10T14:20:23.144Z,42.37
2018-01-10T14:22:53.061Z,43.87
2018-01-10T14:25:20.560Z,44.60
2018-01-10T14:27:48.147Z,43.00
2018-01-10T14:30:15.697Z,45.00
2018-01-10T14:32:45.318Z,50.33
2018-01-10T14:35:16.291Z,48.90
2018-01-10T14:37:44.897Z,47.10
2018-01-10T14:40:14.553Z,46.60
2018-01-10T14:42:43.487Z,43.80
2018-01-10T14:45:13.115Z,48.20
2018-01-10T14:47:43.607Z,44.20
2018-01-10T14:50:12.815Z,48.27
2018-01-10T14:52:41.171Z,44.07
2018-01-10T14:55:11.671Z,45.10
2018-01-10T14:57:40.848Z,42.87
2018-01-10T15:00:09.017Z,41.87
2018-01-10T15:02:39.260Z,41.93
2018-01-10T15:05:08.469Z,43.47
2018-01-10T15:07:38.134Z,43.60
2018-01-10T15:10:07.429Z,50.20
2018-01-10T15:12:36.360Z,41.10
2018-01-10T15:15:10.576Z,44.53
2018-01-10T15:17:39.442Z,47.97
2018-01-10T15:20:08.129Z,44.77
2018-01-10T15:22:36.844Z,41.57
2018-01-10T15:25:07.456Z,46.00
2018-01-10T15:27:37.284Z,44.97
2018-01-10T15:30:07.053Z,47.73
2018-01-10T15:32:34.793Z,47.07
2018-01-10T15:35:03.314Z,51.33
2018-01-10T15:37:32.539Z,51.07
2018-01-10T15:40:02.197Z,50.47
2018-01-10T15:42:33.419Z,50.40
2018-01-10T15:45:03.435Z,49.07
2018-01-10T15:47:33.084Z,49.23
2018-01-10T15:50:02.025Z,40.57
2018-01-10T15:52:31.918Z,53.07
2018-01-10T15:55:00.964Z,57.37
2018-01-10T15:57:30.791Z,57.53
2018-01-10T16:00:01.048Z,59.43
2018-01-10T16:02:30.420Z,55.07
2018-01-10T16:05:01.091Z,52.87
2018-01-10T16:07:28.882Z,57.47
2018-01-10T16:09:59.384Z,58.93
2018-01-10T16:12:30.370Z,51.73
2018-01-10T16:14:58.984Z,55.80
2018-01-10T16:17:27.860Z,56.63
2018-01-10T16:19:57.318Z,59.67
2018-01-10T16:22:26.653Z,56.13
2018-01-10T16:24:55.149Z,53.37
2018-01-10T16:27:23.879Z,56.27
2018-01-10T16:29:53.190Z,58.97
2018-01-10T16:32:21.128Z,57.50
2018-01-10T16:34:50.914Z,61.60
2018-01-10T16:37:18.545Z,53.43
2018-01-10T16:39:47.089Z,55.03
2018-01-10T16:42:15.899Z,52.97
2018-01-10T16:44:44.976Z,54.07
2018-01-10T16:47:14.458Z,57.57
2018-01-10T16:49:42.011Z,49.77
2018-01-10T16:52:10.084Z,52.50
2018-01-10T16:54:41.488Z,54.07
2018-01-10T16:57:11.007Z,56.30
2018-01-10T16:59:38.609Z,52.87
2018-01-10T17:02:07.662Z,57.17
2018-01-10T17:04:38.346Z,50.67
2018-01-10T17:07:13.031Z,52.03
2018-01-10T17:09:41.602Z,54.63
2018-01-10T17:12:11.651Z,53.10
2018-01-10T17:14:39.798Z,54.73
2018-01-10T17:17:08.014Z,55.47
2018-01-10T17:19:35.817Z,57.17
2018-01-10T17:22:05.314Z,54.13
2018-01-10T17:24:33.949Z,56.07
2018-01-10T17:27:03.785Z,51.90
2018-01-10T17:29:31.395Z,52.87
2018-01-10T17:31:59.275Z,50.67
2018-01-10T17:34:27.076Z,50.07
2018-01-10T17:36:56.403Z,51.03
2018-01-10T17:39:24.538Z,57.30
2018-01-10T17:41:53.378Z,55.93
2018-01-10T17:44:25.503Z,56.13
2018-01-10T17:46:55.679Z,65.33
2018-01-10T17:49:25.216Z,64.00
2018-01-10T17:51:54.337Z,62.67
2018-01-10T17:54:22.591Z,55.33
2018-01-10T17:56:50.773Z,57.90
2018-01-10T17:59:19.280Z,54.63
2018-01-10T18:01:47.421Z,53.97
2018-01-10T18:04:16.608Z,50.37
2018-01-10T18:06:45.255Z,56.37
2018-01-10T18:09:13.912Z,54.80
2018-01-10T18:11:42.738Z,50.63
2018-01-10T18:14:11.486Z,55.30
2018-01-10T18:16:39.103Z,52.13
2018-01-10T18:19:06.601Z,47.73
2018-01-10T18:21:34.338Z,56.90
2018-01-10T18:24:01.835Z,43.93
2018-01-10T18:26:29.697Z,52.10
2018-01-10T18:28:57.998Z,52.37
2018-01-10T18:31:27.250Z,48.67
2018-01-10T18:33:55.611Z,51.90
2018-01-10T18:36:25.953Z,50.67
2018-01-10T18:38:55.109Z,53.47
2018-01-10T18:41:22.958Z,51.23
2018-01-10T18:43:51.301Z,53.20
2018-01-10T18:46:19.862Z,45.20
2018-01-10T18:48:48.690Z,51.83
2018-01-10T18:51:16.222Z,50.60
2018-01-10T18:53:44.076Z,51.60
2018-01-10T18:56:11.942Z,58.23
2018-01-10T18:58:40.522Z,56.03
2018-01-10T19:01:08.787Z,51.10
2018-01-10T19:03:36.401Z,54.07
2018-01-10T19:06:06.109Z,49.37
2018-01-10T19:08:33.656Z,57.43
2018-01-10T19:11:01.396Z,48.33
2018-01-10T19:13:30.619Z,50.97
2018-01-10T19:16:00.066Z,50.33
2018-01-10T19:18:28.663Z,53.13
2018-01-10T19:20:57.778Z,52.30
2018-01-10T19:23:26.707Z,48.47
2018-01-10T19:25:57.279Z,53.20
2018-01-10T19:28:30.509Z,47.93
2018-01-10T19:30:59.498Z,51.33
2018-01-10T19:36:04.586Z,50.93
2018-01-10T19:38:35.925Z,49.17
2018-01-10T19:41:05.012Z,52.27
2018-01-10T19:43:34.987Z,54.57
2018-01-10T19:46:04.157Z,49.37
2018-01-10T19:48:32.687Z,51.17
2018-01-10T19:51:01.049Z,54.70
2018-01-10T19:53:28.784Z,50.23
2018-01-10T19:55:56.382Z,54.20
2018-01-10T19:58:24.143Z,56.17
2018-01-10T20:00:52.238Z,58.53
2018-01-10T20:03:20.528Z,53.40
2018-01-10T20:05:48.941Z,52.40
2018-01-10T20:08:16.993Z,54.63
2018-01-10T20:10:44.899Z,55.90
2018-01-10T20:13:13.283Z,61.77
2018-01-10T20:15:41.473Z,66.83
2018-01-10T20:18:09.349Z,63.53
2018-01-10T20:20:37.575Z,64.93
2018-01-10T20:23:07.739Z,63.93
2018-01-10T20:25:35.323Z,66.00
2018-01-10T20:28:04.298Z,58.00
2018-01-10T20:30:33.252Z,62.77
2018-01-10T20:33:01.164Z,58.50
2018-01-10T20:35:29.601Z,60.93
2018-01-10T20:37:58.083Z,53.80
2018-01-10T20:40:26.536Z,56.73
2018-01-10T20:42:54.757Z,57.00
2018-01-10T20:45:23.576Z,50.47
2018-01-10T20:47:51.494Z,54.80
2018-01-10T20:50:19.608Z,53.33
2018-01-10T20:52:47.627Z,57.70
2018-01-10T20:55:16.086Z,55.73
2018-01-10T20:57:44.254Z,56.73
2018-01-10T21:00:13.398Z,56.90
2018-01-10T21:02:41.719Z,55.47
2018-01-10T21:05:10.183Z,58.87
2018-01-10T21:07:38.417Z,59.37
2018-01-10T21:10:06.997Z,56.20
2018-01-10T21:12:34.836Z,59.00
2018-01-10T21:15:02.994Z,60.43
2018-01-10T21:17:30.761Z,51.80
2018-01-10T21:19:58.919Z,53.07
2018-01-10T21:22:26.623Z,58.50
2018-01-10T21:24:54.183Z,60.83
2018-01-10T21:27:21.730Z,58.20
2018-01-10T21:29:49.292Z,65.70
2018-01-10T21:32:16.804Z,56.50
2018-01-10T21:34:45.122Z,55.50
2018-01-10T21:37:12.993Z,56.03
2018-01-10T21:39:40.716Z,52.70
2018-01-10T21:42:08.300Z,58.53
2018-01-10T21:44:35.805Z,57.07
2018-01-10T21:47:03.488Z,52.53
2018-01-10T21:49:31.022Z,54.83
2018-01-10T21:51:59.450Z,55.10
2018-01-10T21:54:27.066Z,57.67
2018-01-10T21:56:54.554Z,55.90
2018-01-10T21:59:22.103Z,55.27
2018-01-10T22:01:49.591Z,56.80
2018-01-10T22:04:17.097Z,61.20
2018-01-10T22:06:44.636Z,57.53
2018-01-10T22:09:12.153Z,53.90
2018-01-10T22:11:40.477Z,60.30
2018-01-10T22:14:08.789Z,60.07
2018-01-10T22:16:37.046Z,57.23
2018-01-10T22:19:04.772Z,59.97
2018-01-10T22:21:32.289Z,58.13
2018-01-10T22:23:59.783Z,55.33
2018-01-10T22:26:27.295Z,56.47
2018-01-10T22:28:55.600Z,57.83
2018-01-10T22:31:23.883Z,55.00
2018-01-10T22:33:51.377Z,59.43
2018-01-10T22:36:19.787Z,57.37
2018-01-10T22:38:47.307Z,59.33
2018-01-10T22:41:15.005Z,59.83
2018-01-10T22:43:42.540Z,56.50
2018-01-10T22:46:10.852Z,54.97
2018-01-10T22:48:38.337Z,53.27
2018-01-10T22:51:05.841Z,63.70
2018-01-10T22:53:34.138Z,56.77
2018-01-10T22:56:01.613Z,55.53
2018-01-10T22:58:29.102Z,54.57
2018-01-10T23:00:56.589Z,53.67
2018-01-10T23:03:24.156Z,52.67
2018-01-10T23:05:51.646Z,52.20
2018-01-10T23:08:19.125Z,54.50
2018-01-10T23:10:46.622Z,53.67
2018-01-10T23:13:14.129Z,53.47
2018-01-10T23:15:42.405Z,57.60
2018-01-10T23:18:09.935Z,53.53
2018-01-10T23:20:37.443Z,52.97
2018-01-10T23:23:04.922Z,55.17
2018-01-10T23:25:32.426Z,60.20
2018-01-10T23:28:00.012Z,53.57
2018-01-10T23:30:27.500Z,55.67
2018-01-10T23:32:55.047Z,57.07
2018-01-10T23:35:22.604Z,52.70
2018-01-10T23:37:50.120Z,54.60
2018-01-10T23:40:17.622Z,54.50
2018-01-10T23:42:45.234Z,53.83
2018-01-10T23:45:13.463Z,58.20
2018-01-10T23:47:40.980Z,55.33
2018-01-10T23:50:08.498Z,57.80
2018-01-10T23:52:35.985Z,53.93
2018-01-10T23:55:03.453Z,59.03
2018-01-10T23:57:31.710Z,54.50
2018-01-10T23:59:59.278Z,54.53
